createdAt,value
2018-09-29T00:00:54.259Z,5.51
2018-09-29T00:03:22.627Z,5.43
2018-09-29T00:05:50.968Z,5.47
2018-09-29T00:08:19.323Z,5.86
2018-09-29T00:10:47.703Z,5.63
2018-09-29T00:13:16.063Z,5.58
2018-09-29T00:15:44.427Z,5.83
2018-09-29T00:18:12.787Z,5.34
2018-09-29T00:20:41.216Z,5.25
2018-09-29T00:23:09.604Z,5.36
2018-09-29T00:25:37.947Z,5.46
2018-09-29T00:28:06.275Z,5.43
2018-09-29T00:30:34.623Z,5.27
2018-09-29T00:33:03.276Z,5.29
2018-09-29T00:35:31.611Z,5.34
2018-09-29T00:37:59.955Z,5.26
2018-09-29T00:40:28.362Z,5.19
2018-09-29T00:42:56.719Z,5.21
2018-09-29T00:45:25.040Z,5.26
2018-09-29T00:47:53.392Z,5.20
2018-09-29T00:50:21.727Z,4.98
2018-09-29T00:52:50.099Z,5.14
2018-09-29T00:55:18.449Z,5.35
2018-09-29T00:57:46.810Z,5.25
2018-09-29T01:00:15.206Z,5.11
2018-09-29T01:02:43.567Z,5.06
2018-09-29T01:05:11.892Z,5.25
2018-09-29T01:07:40.266Z,5.18
2018-09-29T01:10:08.731Z,5.14
2018-09-29T01:12:37.116Z,5.02
2018-09-29T01:15:05.507Z,5.19
2018-09-29T01:17:33.868Z,5.01
2018-09-29T01:20:02.233Z,4.89
2018-09-29T01:22:30.809Z,5.09
2018-09-29T01:24:59.172Z,4.94
2018-09-29T01:27:27.671Z,5.06
2018-09-29T01:29:56.265Z,4.89
2018-09-29T01:32:24.670Z,4.92
2018-09-29T01:34:53.150Z,4.84
2018-09-29T01:37:21.607Z,4.81
2018-09-29T01:39:50.037Z,4.96
2018-09-29T01:42:18.546Z,4.86
2018-09-29T01:44:46.895Z,4.68
2018-09-29T01:47:15.221Z,4.67
2018-09-29T01:49:43.626Z,4.56
2018-09-29T01:52:12.027Z,4.57
2018-09-29T01:54:40.406Z,4.58
2018-09-29T01:57:08.890Z,4.34
2018-09-29T01:59:37.252Z,4.38
2018-09-29T02:02:05.631Z,4.28
2018-09-29T02:04:33.978Z,4.28
2018-09-29T02:07:02.432Z,3.97
2018-09-29T02:09:30.795Z,4.15
2018-09-29T02:11:59.373Z,4.16
2018-09-29T02:14:27.763Z,4.07
2018-09-29T02:16:56.103Z,4.16
2018-09-29T02:19:24.466Z,4.11
2018-09-29T02:21:52.823Z,3.78
2018-09-29T02:24:21.184Z,3.68
2018-09-29T02:26:49.524Z,3.91
2018-09-29T02:29:17.923Z,3.86
2018-09-29T02:31:46.397Z,3.76
2018-09-29T02:34:14.802Z,3.54
2018-09-29T02:36:43.167Z,3.71
2018-09-29T02:39:12.659Z,3.74
2018-09-29T02:41:40.991Z,3.81
2018-09-29T02:44:09.686Z,3.67
2018-09-29T02:46:38.212Z,3.33
2018-09-29T02:49:06.703Z,3.50
2018-09-29T02:51:35.052Z,3.40
2018-09-29T02:54:03.484Z,3.50
2018-09-29T02:56:31.830Z,3.25
2018-09-29T02:59:00.155Z,3.31
2018-09-29T03:01:28.547Z,3.38
2018-09-29T03:03:56.887Z,3.48
2018-09-29T03:06:25.270Z,3.30
2018-09-29T03:08:53.633Z,3.59
2018-09-29T03:11:22.104Z,3.53
2018-09-29T03:13:50.678Z,3.30
2018-09-29T03:16:19.184Z,3.19
2018-09-29T03:18:47.600Z,3.26
2018-09-29T03:21:16.117Z,3.19
2018-09-29T03:23:44.449Z,3.20
2018-09-29T03:26:12.847Z,3.36
2018-09-29T03:28:41.162Z,3.47
2018-09-29T03:31:09.672Z,3.43
2018-09-29T03:33:38.051Z,3.23
2018-09-29T03:36:06.749Z,3.17
2018-09-29T03:38:35.521Z,3.17
2018-09-29T03:41:03.872Z,3.14
2018-09-29T03:43:32.195Z,3.24
2018-09-29T03:46:00.639Z,3.18
2018-09-29T03:48:28.978Z,3.26
2018-09-29T03:50:57.355Z,3.22
2018-09-29T03:53:25.775Z,3.01
2018-09-29T03:55:54.135Z,3.16
2018-09-29T03:58:22.478Z,3.14
2018-09-29T04:00:50.846Z,3.11
2018-09-29T04:03:19.489Z,3.09
2018-09-29T04:05:47.873Z,2.91
2018-09-29T04:08:16.354Z,2.88
2018-09-29T04:10:44.714Z,3.04
2018-09-29T04:13:13.146Z,2.91
2018-09-29T04:15:41.413Z,3.11
2018-09-29T04:18:09.718Z,2.93
2018-09-29T04:20:38.095Z,2.87
2018-09-29T04:23:06.548Z,2.88
2018-09-29T04:25:34.805Z,2.78
2018-09-29T04:28:03.136Z,2.93
2018-09-29T04:30:31.397Z,2.81
2018-09-29T04:32:59.693Z,2.87
2018-09-29T04:35:28.026Z,2.80
2018-09-29T04:37:56.310Z,2.66
2018-09-29T04:40:24.625Z,2.65
2018-09-29T04:42:52.927Z,2.75
2018-09-29T04:45:21.189Z,2.69
2018-09-29T04:47:49.482Z,2.59
2018-09-29T04:50:17.777Z,2.66
2018-09-29T04:52:46.126Z,2.67
2018-09-29T04:55:14.445Z,2.47
2018-09-29T04:57:42.726Z,2.60
2018-09-29T05:00:11.033Z,2.52
2018-09-29T05:02:39.319Z,2.63
2018-09-29T05:05:07.637Z,2.65
2018-09-29T05:07:35.897Z,2.61
2018-09-29T05:10:04.222Z,2.21
2018-09-29T05:12:32.477Z,2.26
2018-09-29T05:15:00.751Z,2.45
2018-09-29T05:17:29.109Z,2.43
2018-09-29T05:19:57.406Z,2.18
2018-09-29T05:22:25.677Z,2.27
2018-09-29T05:24:53.959Z,2.40
2018-09-29T05:27:22.222Z,2.38
2018-09-29T05:29:50.509Z,2.32
2018-09-29T05:32:18.797Z,2.32
2018-09-29T05:34:47.108Z,2.14
2018-09-29T05:37:15.361Z,2.41
2018-09-29T05:39:43.652Z,2.45
2018-09-29T05:42:11.905Z,2.37
2018-09-29T05:44:40.181Z,2.38
2018-09-29T05:47:08.481Z,2.47
2018-09-29T05:49:36.949Z,2.50
2018-09-29T05:52:05.238Z,2.55
2018-09-29T05:54:33.625Z,2.52
2018-09-29T05:57:01.919Z,2.49
2018-09-29T05:59:30.209Z,2.61
2018-09-29T06:01:58.480Z,2.60
2018-09-29T06:04:27.353Z,2.49
2018-09-29T06:06:55.870Z,2.71
2018-09-29T06:09:24.154Z,2.97
2018-09-29T06:11:52.486Z,3.07
2018-09-29T06:14:20.788Z,3.12
2018-09-29T06:16:49.046Z,3.25
2018-09-29T06:19:17.339Z,3.26
2018-09-29T06:21:45.615Z,3.08
2018-09-29T06:24:13.915Z,3.24
2018-09-29T06:26:42.179Z,3.35
2018-09-29T06:29:10.476Z,3.40
2018-09-29T06:31:38.763Z,3.44
2018-09-29T06:34:07.062Z,3.69
2018-09-29T06:36:35.482Z,3.77
2018-09-29T06:39:04.234Z,3.88
2018-09-29T06:41:32.582Z,3.93
2018-09-29T06:44:00.870Z,4.07
2018-09-29T06:46:29.998Z,4.15
2018-09-29T06:48:58.289Z,4.28
2018-09-29T06:51:26.666Z,4.26
2018-09-29T06:53:54.936Z,4.25
2018-09-29T06:56:23.223Z,4.41
2018-09-29T06:58:51.529Z,4.49
2018-09-29T07:01:19.819Z,4.66
2018-09-29T07:03:48.097Z,4.70
2018-09-29T07:06:16.396Z,4.83
2018-09-29T07:08:44.661Z,5.01
2018-09-29T07:11:13.448Z,5.12
2018-09-29T07:13:41.748Z,5.23
2018-09-29T07:16:10.066Z,5.37
2018-09-29T07:18:38.350Z,5.52
2018-09-29T07:21:06.672Z,5.52
2018-09-29T07:23:34.991Z,5.64
2018-09-29T07:26:03.314Z,5.74
2018-09-29T07:28:31.630Z,5.84
2018-09-29T07:30:59.956Z,5.92
2018-09-29T07:33:28.469Z,5.94
2018-09-29T07:35:56.604Z,6.01
2018-09-29T07:38:24.886Z,6.08
2018-09-29T07:40:53.264Z,6.21
2018-09-29T07:43:21.672Z,6.31
2018-09-29T07:46:13.123Z,6.38
2018-09-29T07:50:05.998Z,6.53
2018-09-29T07:52:34.350Z,6.64
2018-09-29T07:55:02.906Z,6.63
2018-09-29T07:57:31.253Z,6.75
2018-09-29T07:59:59.573Z,6.81
2018-09-29T08:02:27.942Z,6.83
2018-09-29T08:04:56.894Z,6.96
2018-09-29T08:07:25.262Z,7.02
2018-09-29T08:09:53.624Z,7.16
2018-09-29T08:12:23.022Z,7.24
2018-09-29T08:14:51.480Z,7.31
2018-09-29T08:17:20.100Z,7.32
2018-09-29T08:20:16.846Z,7.43
2018-09-29T08:22:49.607Z,7.49
2018-09-29T08:25:18.262Z,7.58
2018-09-29T08:27:46.615Z,7.69
2018-09-29T08:33:41.079Z,7.81
2018-09-29T08:36:14.969Z,7.89
2018-09-29T08:38:43.750Z,7.90
2018-09-29T08:41:12.844Z,8.05
2018-09-29T08:43:41.991Z,8.09
2018-09-29T08:46:16.078Z,8.14
2018-09-29T08:48:52.738Z,8.17
2018-09-29T08:51:26.218Z,8.26
2018-09-29T08:53:58.364Z,8.30
2018-09-29T08:56:37.969Z,8.44
2018-09-29T09:00:42.930Z,8.41
2018-09-29T09:03:17.141Z,8.42
2018-09-29T09:05:52.321Z,8.50
2018-09-29T09:08:23.809Z,8.55
2018-09-29T09:11:10.511Z,8.64
2018-09-29T09:13:46.344Z,8.71
2018-09-29T09:16:21.065Z,8.71
2018-09-29T09:18:59.430Z,8.88
2018-09-29T09:21:33.986Z,8.90
2018-09-29T09:24:18.201Z,8.85
2018-09-29T09:26:55.484Z,8.90
2018-09-29T09:29:47.400Z,8.91
2018-09-29T09:32:29.153Z,9.07
2018-09-29T09:35:13.426Z,9.18
2018-09-29T09:37:58.942Z,9.31
2018-09-29T09:40:33.316Z,9.31
2018-09-29T09:43:10.152Z,9.46
2018-09-29T09:45:40.319Z,9.47
2018-09-29T09:48:38.851Z,9.54
2018-09-29T09:51:28.416Z,9.60
2018-09-29T09:54:08.293Z,9.69
2018-09-29T09:56:50.081Z,9.57
2018-09-29T09:59:31.657Z,9.69
2018-09-29T10:02:12.758Z,9.89
2018-09-29T10:04:47.130Z,10.03
2018-09-29T10:07:28.356Z,10.08
2018-09-29T10:10:07.066Z,9.97
2018-09-29T10:12:47.388Z,10.06
2018-09-29T10:15:28.184Z,10.09
2018-09-29T10:18:07.761Z,10.16
2018-09-29T10:20:46.700Z,10.21
2018-09-29T10:23:26.405Z,10.20
2018-09-29T10:26:03.000Z,10.29
2018-09-29T10:28:37.250Z,10.43
2018-09-29T10:31:11.450Z,10.56
2018-09-29T10:33:44.783Z,10.90
2018-09-29T10:36:25.716Z,10.91
2018-09-29T10:39:01.098Z,10.97
2018-09-29T10:41:38.754Z,10.91
2018-09-29T10:44:20.993Z,10.95
2018-09-29T10:47:09.500Z,10.96
2018-09-29T10:49:56.762Z,11.07
2018-09-29T10:52:38.753Z,11.25
2018-09-29T10:55:17.046Z,11.26
2018-09-29T10:58:10.514Z,11.36
2018-09-29T11:01:00.256Z,11.39
2018-09-29T11:03:41.780Z,11.45
2018-09-29T11:06:11.112Z,11.40
2018-09-29T11:08:39.519Z,11.36
2018-09-29T11:11:07.961Z,11.45
2018-09-29T11:13:36.336Z,11.21
2018-09-29T11:16:04.728Z,11.41
2018-09-29T11:18:33.130Z,11.67
2018-09-29T11:21:01.693Z,11.64
2018-09-29T11:23:29.994Z,11.85
2018-09-29T11:25:58.401Z,11.66
2018-09-29T11:28:27.087Z,11.82
2018-09-29T11:30:55.445Z,11.85
2018-09-29T11:33:24.862Z,12.01
2018-09-29T11:35:53.242Z,11.88
2018-09-29T11:38:21.640Z,11.89
2018-09-29T11:40:50.577Z,11.99
2018-09-29T11:43:18.928Z,11.92
2018-09-29T11:45:47.254Z,12.18
2018-09-29T11:48:15.622Z,12.17
2018-09-29T11:50:44.142Z,12.10
2018-09-29T11:53:12.594Z,11.90
2018-09-29T11:55:40.980Z,11.77
2018-09-29T11:58:12.129Z,12.02
2018-09-29T12:01:06.628Z,12.35
2018-09-29T12:03:35.156Z,12.27
2018-09-29T12:06:03.988Z,12.27
2018-09-29T12:08:32.400Z,12.29
2018-09-29T12:11:00.889Z,12.20
2018-09-29T12:13:29.388Z,12.16
2018-09-29T12:15:57.912Z,12.32
2018-09-29T12:18:27.244Z,12.47
2018-09-29T12:20:55.794Z,12.60
2018-09-29T12:23:24.128Z,12.50
2018-09-29T12:25:52.590Z,12.63
2018-09-29T12:28:21.279Z,12.44
2018-09-29T12:30:50.099Z,12.26
2018-09-29T12:33:18.458Z,12.37
2018-09-29T12:35:47.188Z,12.39
2018-09-29T12:38:15.571Z,12.61
2018-09-29T12:40:43.923Z,12.61
2018-09-29T12:43:12.842Z,12.57
2018-09-29T12:45:41.222Z,12.51
2018-09-29T12:48:09.707Z,12.37
2018-09-29T12:50:38.090Z,12.72
2018-09-29T12:53:06.468Z,12.69
2018-09-29T12:55:34.932Z,12.65
2018-09-29T12:58:03.338Z,12.84
2018-09-29T13:00:31.688Z,12.61
2018-09-29T13:03:00.107Z,12.61
2018-09-29T13:05:28.473Z,12.89
2018-09-29T13:07:56.803Z,12.91
2018-09-29T13:10:25.187Z,12.89
2018-09-29T13:12:53.547Z,12.80
2018-09-29T13:15:22.183Z,12.81
2018-09-29T13:17:50.531Z,12.86
2018-09-29T13:20:18.923Z,12.89
2018-09-29T13:22:47.427Z,12.61
2018-09-29T13:25:15.751Z,12.55
2018-09-29T13:27:44.172Z,12.55
2018-09-29T13:30:12.557Z,12.55
2018-09-29T13:32:40.947Z,12.58
2018-09-29T13:35:09.423Z,12.63
2018-09-29T13:37:37.762Z,12.69
2018-09-29T13:40:06.633Z,12.79
2018-09-29T13:42:35.174Z,12.80
2018-09-29T13:45:03.586Z,12.64
2018-09-29T13:47:31.975Z,12.77
2018-09-29T13:50:00.375Z,12.79
2018-09-29T13:52:28.787Z,12.78
2018-09-29T13:54:57.228Z,12.82
2018-09-29T13:57:25.655Z,12.90
2018-09-29T13:59:53.986Z,13.00
2018-09-29T14:02:22.496Z,12.94
2018-09-29T14:04:50.884Z,12.95
2018-09-29T14:07:19.311Z,13.02
2018-09-29T14:09:47.668Z,13.06
2018-09-29T14:12:16.123Z,12.93
2018-09-29T14:14:44.864Z,13.02
2018-09-29T14:17:13.283Z,13.13
2018-09-29T14:19:41.698Z,13.11
2018-09-29T14:22:10.220Z,13.08
2018-09-29T14:24:38.766Z,12.99
2018-09-29T14:27:07.199Z,12.94
2018-09-29T14:29:35.558Z,12.94
2018-09-29T14:32:04.120Z,12.91
2018-09-29T14:34:32.654Z,12.71
2018-09-29T14:37:01.411Z,12.76
2018-09-29T14:39:29.942Z,12.74
2018-09-29T14:41:58.498Z,12.92
2018-09-29T14:44:26.941Z,12.91
2018-09-29T14:46:55.295Z,12.95
2018-09-29T14:49:23.819Z,13.00
2018-09-29T14:51:52.292Z,13.14
2018-09-29T14:54:20.759Z,13.20
2018-09-29T14:56:49.219Z,13.33
2018-09-29T14:59:17.587Z,13.23
2018-09-29T15:01:46.139Z,13.22
2018-09-29T15:04:14.678Z,13.16
2018-09-29T15:06:43.201Z,13.30
2018-09-29T15:09:12.630Z,13.05
2018-09-29T15:11:41.251Z,12.92
2018-09-29T15:14:10.391Z,12.74
2018-09-29T15:16:39.310Z,12.83
2018-09-29T15:19:07.683Z,12.81
2018-09-29T15:21:36.160Z,12.82
2018-09-29T15:24:04.688Z,12.82
2018-09-29T15:26:33.959Z,12.84
2018-09-29T15:29:02.799Z,12.80
2018-09-29T15:31:31.215Z,12.60
2018-09-29T15:33:59.604Z,12.48
2018-09-29T15:36:28.035Z,12.40
2018-09-29T15:38:57.889Z,12.38
2018-09-29T15:41:26.442Z,12.37
2018-09-29T15:43:54.979Z,12.32
2018-09-29T15:46:23.545Z,12.14
2018-09-29T15:48:52.156Z,12.12
2018-09-29T15:51:20.506Z,12.07
2018-09-29T15:53:49.071Z,12.14
2018-09-29T15:56:17.776Z,12.05
2018-09-29T15:58:46.272Z,11.92
2018-09-29T16:01:14.670Z,11.75
2018-09-29T16:03:43.258Z,11.55
2018-09-29T16:06:12.092Z,11.38
2018-09-29T16:08:40.872Z,11.30
2018-09-29T16:11:09.246Z,11.31
2018-09-29T16:13:37.611Z,11.23
2018-09-29T16:16:06.297Z,11.10
2018-09-29T16:18:34.867Z,11.15
2018-09-29T16:21:03.271Z,11.01
2018-09-29T16:23:31.616Z,10.97
2018-09-29T16:26:00.068Z,10.91
2018-09-29T16:28:28.432Z,10.81
2018-09-29T16:30:56.819Z,10.69
2018-09-29T16:33:25.165Z,10.65
2018-09-29T16:35:53.526Z,10.53
2018-09-29T16:38:21.866Z,10.49
2018-09-29T16:40:50.320Z,10.39
2018-09-29T16:43:18.844Z,10.27
2018-09-29T16:45:47.148Z,10.14
2018-09-29T16:48:15.490Z,10.01
2018-09-29T16:50:44.023Z,9.76
2018-09-29T16:53:12.907Z,9.54
2018-09-29T16:55:41.413Z,9.43
2018-09-29T16:58:09.886Z,9.27
2018-09-29T17:00:38.255Z,9.18
2018-09-29T17:03:06.736Z,9.23
2018-09-29T17:05:35.072Z,9.31
2018-09-29T17:08:03.432Z,9.17
2018-09-29T17:10:31.782Z,9.10
2018-09-29T17:13:00.123Z,8.92
2018-09-29T17:15:28.487Z,8.84
2018-09-29T17:17:56.825Z,8.68
2018-09-29T17:20:25.157Z,8.39
2018-09-29T17:22:53.869Z,8.27
2018-09-29T17:25:22.212Z,8.30
2018-09-29T17:27:50.561Z,8.23
2018-09-29T17:30:18.886Z,8.23
2018-09-29T17:32:47.303Z,7.98
2018-09-29T17:35:15.670Z,8.01
2018-09-29T17:37:44.168Z,7.92
2018-09-29T17:40:12.518Z,7.78
2018-09-29T17:42:40.851Z,7.74
2018-09-29T17:45:09.288Z,7.71
2018-09-29T17:47:37.915Z,7.81
2018-09-29T17:50:07.439Z,7.74
2018-09-29T17:52:35.806Z,7.44
2018-09-29T17:55:04.250Z,7.53
2018-09-29T17:57:32.590Z,7.48
2018-09-29T18:00:01.485Z,7.46
2018-09-29T18:02:29.808Z,7.35
2018-09-29T18:04:58.351Z,7.27
2018-09-29T18:07:26.955Z,7.27
2018-09-29T18:09:55.369Z,7.10
2018-09-29T18:12:24.411Z,7.01
2018-09-29T18:14:52.769Z,6.86
2018-09-29T18:17:21.254Z,6.87
2018-09-29T18:19:49.692Z,6.93
2018-09-29T18:22:18.019Z,6.88
2018-09-29T18:24:46.379Z,6.92
2018-09-29T18:27:14.833Z,6.60
2018-09-29T18:29:43.534Z,6.29
2018-09-29T18:32:11.861Z,6.36
2018-09-29T18:34:40.207Z,6.47
2018-09-29T18:37:08.591Z,6.50
2018-09-29T18:39:37.005Z,6.36
2018-09-29T18:42:05.324Z,6.18
2018-09-29T18:44:33.770Z,6.30
2018-09-29T18:47:02.558Z,6.12
2018-09-29T18:49:30.965Z,6.27
2018-09-29T18:51:59.316Z,6.30
2018-09-29T18:54:27.749Z,6.24
2018-09-29T18:56:56.287Z,6.25
2018-09-29T18:59:24.992Z,6.24
2018-09-29T19:01:53.392Z,6.17
2018-09-29T19:04:21.743Z,6.07
2018-09-29T19:06:50.432Z,5.87
2018-09-29T19:09:18.885Z,6.08
2018-09-29T19:11:47.349Z,6.03
2018-09-29T19:14:16.290Z,5.78
2018-09-29T19:16:44.828Z,5.56
2018-09-29T19:19:14.190Z,5.67
2018-09-29T19:21:42.563Z,5.71
2018-09-29T19:24:11.128Z,5.73
2018-09-29T19:26:39.490Z,5.90
2018-09-29T19:29:07.803Z,5.72
2018-09-29T19:31:36.206Z,5.68
2018-09-29T19:34:05.212Z,5.61
2018-09-29T19:36:33.549Z,5.58
2018-09-29T19:39:02.122Z,5.48
2018-09-29T19:41:31.152Z,5.20
2018-09-29T19:43:59.500Z,5.30
2018-09-29T19:46:28.170Z,5.39
2018-09-29T19:48:56.890Z,5.35
2018-09-29T19:51:25.382Z,5.41
2018-09-29T19:53:53.751Z,4.97
2018-09-29T19:56:22.134Z,4.87
2018-09-29T19:58:50.522Z,5.10
2018-09-29T20:01:18.959Z,5.08
2018-09-29T20:03:47.666Z,4.69
2018-09-29T20:06:16.317Z,4.91
2018-09-29T20:08:44.685Z,4.97
2018-09-29T20:11:13.354Z,5.03
2018-09-29T20:13:41.803Z,5.05
2018-09-29T20:16:12.500Z,4.88
2018-09-29T20:18:40.898Z,4.60
2018-09-29T20:21:09.254Z,4.82
2018-09-29T20:23:37.603Z,4.81
2018-09-29T20:26:05.975Z,4.83
2018-09-29T20:28:34.342Z,4.69
2018-09-29T20:31:02.858Z,4.39
2018-09-29T20:33:31.247Z,4.56
2018-09-29T20:35:59.589Z,4.71
2018-09-29T20:38:27.971Z,4.67
2018-09-29T20:40:56.395Z,4.45
2018-09-29T20:43:25.063Z,4.28
2018-09-29T20:45:53.415Z,4.23
2018-09-29T20:48:21.793Z,4.43
2018-09-29T20:50:50.158Z,4.52
2018-09-29T20:53:18.486Z,4.57
2018-09-29T20:55:47.053Z,4.56
2018-09-29T20:58:15.395Z,4.45
2018-09-29T21:00:43.920Z,4.44
2018-09-29T21:03:12.329Z,4.47
2018-09-29T21:05:40.698Z,4.45
2018-09-29T21:08:09.058Z,4.47
2018-09-29T21:10:37.513Z,4.49
2018-09-29T21:13:06.101Z,4.29
2018-09-29T21:15:34.510Z,4.36
2018-09-29T21:18:03.043Z,4.27
2018-09-29T21:20:31.355Z,4.28
2018-09-29T21:22:59.766Z,4.13
2018-09-29T21:25:28.083Z,4.09
2018-09-29T21:27:56.977Z,4.18
2018-09-29T21:30:45.959Z,4.20
2018-09-29T21:33:14.324Z,4.12
2018-09-29T21:35:42.827Z,4.04
2018-09-29T21:38:12.334Z,4.16
2018-09-29T21:40:40.731Z,3.91
2018-09-29T21:43:09.097Z,3.71
2018-09-29T21:45:37.451Z,3.48
2018-09-29T21:48:05.835Z,3.66
2018-09-29T21:50:34.163Z,3.73
2018-09-29T21:53:02.509Z,3.81
2018-09-29T21:55:30.812Z,3.79
2018-09-29T21:57:59.180Z,3.83
2018-09-29T22:00:32.775Z,3.89
2018-09-29T22:03:01.128Z,3.79
2018-09-29T22:05:29.487Z,3.82
2018-09-29T22:07:57.842Z,3.74
2018-09-29T22:10:26.142Z,3.80
2018-09-29T22:12:54.522Z,3.77
2018-09-29T22:15:22.923Z,3.82
2018-09-29T22:17:51.536Z,3.65
2018-09-29T22:20:20.131Z,3.74
2018-09-29T22:22:48.472Z,3.53
2018-09-29T22:25:16.883Z,3.72
2018-09-29T22:27:45.386Z,3.68
2018-09-29T22:30:13.979Z,3.79
2018-09-29T22:32:42.315Z,3.79
2018-09-29T22:35:10.628Z,3.95
2018-09-29T22:37:38.969Z,3.70
2018-09-29T22:40:07.467Z,3.50
2018-09-29T22:42:36.055Z,3.03
2018-09-29T22:45:04.395Z,3.15
2018-09-29T22:47:32.863Z,3.21
2018-09-29T22:50:01.323Z,3.34
2018-09-29T22:52:29.658Z,3.43
2018-09-29T22:54:58.038Z,3.50
2018-09-29T22:57:26.450Z,3.52
2018-09-29T22:59:54.763Z,3.43
2018-09-29T23:02:23.132Z,2.98
2018-09-29T23:04:51.450Z,3.33
2018-09-29T23:07:19.875Z,3.18
2018-09-29T23:09:48.207Z,3.32
2018-09-29T23:12:16.530Z,3.41
2018-09-29T23:14:44.874Z,3.38
2018-09-29T23:17:13.228Z,3.49
2018-09-29T23:19:41.562Z,3.59
2018-09-29T23:22:09.902Z,3.57
2018-09-29T23:24:38.244Z,3.52
2018-09-29T23:27:06.749Z,3.58
2018-09-29T23:29:35.101Z,3.54
2018-09-29T23:32:03.434Z,3.28
2018-09-29T23:34:31.770Z,3.15
2018-09-29T23:37:00.088Z,3.32
2018-09-29T23:39:28.415Z,3.25
2018-09-29T23:41:57.315Z,3.13
2018-09-29T23:44:25.687Z,3.28
2018-09-29T23:46:54.035Z,3.30
2018-09-29T23:49:22.378Z,3.29
2018-09-29T23:51:50.712Z,3.15
2018-09-29T23:54:19.073Z,3.11
2018-09-29T23:56:47.411Z,3.06
2018-09-29T23:59:15.880Z,2.96
